createdAt,value
2022-08-27T00:00:11.606Z,20.31
2022-08-27T00:01:11.995Z,20.29
2022-08-27T00:02:11.597Z,20.31
2022-08-27T00:03:11.559Z,20.32
2022-08-27T00:04:11.610Z,20.32
2022-08-27T00:05:11.646Z,20.35
2022-08-27T00:06:11.656Z,20.33
2022-08-27T00:07:11.510Z,20.35
2022-08-27T00:08:11.751Z,20.35
2022-08-27T00:09:11.454Z,20.35
2022-08-27T00:10:11.491Z,20.33
2022-08-27T00:11:11.787Z,20.32
2022-08-27T00:12:11.594Z,20.31
2022-08-27T00:13:11.523Z,20.29
2022-08-27T00:14:11.506Z,20.28
2022-08-27T00:15:11.425Z,20.24
2022-08-27T00:16:12.685Z,20.24
2022-08-27T00:17:11.374Z,20.23
2022-08-27T00:18:11.602Z,20.21
2022-08-27T00:19:11.349Z,20.20
2022-08-27T00:20:11.376Z,20.17
2022-08-27T00:21:11.326Z,20.17
2022-08-27T00:22:11.333Z,20.18
2022-08-27T00:23:11.304Z,20.17
2022-08-27T00:24:11.295Z,20.17
2022-08-27T00:25:11.294Z,20.16
2022-08-27T00:26:11.285Z,20.16
2022-08-27T00:27:11.282Z,20.14
2022-08-27T00:28:11.407Z,20.13
2022-08-27T00:29:11.240Z,20.10
2022-08-27T00:30:11.226Z,20.10
2022-08-27T00:31:12.202Z,20.08
2022-08-27T00:32:11.339Z,20.08
2022-08-27T00:33:11.181Z,20.08
2022-08-27T00:34:13.071Z,20.06
2022-08-27T00:35:11.166Z,20.08
2022-08-27T00:36:11.197Z,20.03
2022-08-27T00:37:11.563Z,20.03
2022-08-27T00:38:11.857Z,20.03
2022-08-27T00:39:11.258Z,20.01
2022-08-27T00:40:11.174Z,20.01
2022-08-27T00:41:11.097Z,19.99
2022-08-27T00:42:11.107Z,20.02
2022-08-27T00:43:11.083Z,20.02
2022-08-27T00:44:11.198Z,20.03
2022-08-27T00:45:11.047Z,20.05
2022-08-27T00:46:11.140Z,20.06
2022-08-27T00:47:11.028Z,20.08
2022-08-27T00:48:11.371Z,20.06
2022-08-27T00:49:11.135Z,20.05
2022-08-27T00:50:11.037Z,20.06
2022-08-27T00:51:10.988Z,20.05
2022-08-27T00:52:11.293Z,20.05
2022-08-27T00:53:11.259Z,20.03
2022-08-27T00:54:10.971Z,20.01
2022-08-27T00:55:11.949Z,19.99
2022-08-27T00:56:10.948Z,19.98
2022-08-27T00:57:10.919Z,20.01
2022-08-27T00:58:11.605Z,20.01
2022-08-27T00:59:10.898Z,20.01
2022-08-27T01:00:10.921Z,19.99
2022-08-27T01:01:11.465Z,20.01
2022-08-27T01:02:10.993Z,20.01
2022-08-27T01:03:11.430Z,20.03
2022-08-27T01:04:11.441Z,20.02
2022-08-27T01:05:10.825Z,20.01
2022-08-27T01:06:10.850Z,20.01
2022-08-27T01:07:11.869Z,20.02
2022-08-27T01:08:10.981Z,20.02
2022-08-27T01:09:10.828Z,20.01
2022-08-27T01:10:10.784Z,20.02
2022-08-27T01:11:10.984Z,20.01
2022-08-27T01:12:10.992Z,20.01
2022-08-27T01:13:11.009Z,19.99
2022-08-27T01:14:10.890Z,19.98
2022-08-27T01:15:11.024Z,19.96
2022-08-27T01:16:10.786Z,19.95
2022-08-27T01:17:11.120Z,19.96
2022-08-27T01:18:10.822Z,19.98
2022-08-27T01:19:10.673Z,19.99
2022-08-27T01:20:10.668Z,19.99
2022-08-27T01:21:10.650Z,19.99
2022-08-27T01:22:21.756Z,19.99
2022-08-27T01:23:11.623Z,19.99
2022-08-27T01:24:10.627Z,19.96
2022-08-27T01:25:10.593Z,19.95
2022-08-27T01:26:10.684Z,19.94
2022-08-27T01:27:13.613Z,19.88
2022-08-27T01:28:10.831Z,19.87
2022-08-27T01:29:10.551Z,19.88
2022-08-27T01:30:10.554Z,19.88
2022-08-27T01:31:10.649Z,19.87
2022-08-27T01:32:10.553Z,19.86
2022-08-27T01:33:10.620Z,19.83
2022-08-27T01:34:10.621Z,19.81
2022-08-27T01:35:10.491Z,19.80
2022-08-27T01:36:10.500Z,19.78
2022-08-27T01:37:10.519Z,19.76
2022-08-27T01:38:18.827Z,19.73
2022-08-27T01:39:11.581Z,19.71
2022-08-27T01:40:10.537Z,19.65
2022-08-27T01:41:10.452Z,19.63
2022-08-27T01:42:10.446Z,19.59
2022-08-27T01:43:10.445Z,19.62
2022-08-27T01:44:10.592Z,19.59
2022-08-27T01:45:10.592Z,19.59
2022-08-27T01:46:10.380Z,19.61
2022-08-27T01:47:10.435Z,19.61
2022-08-27T01:48:10.471Z,19.56
2022-08-27T01:49:10.323Z,19.54
2022-08-27T01:50:10.366Z,19.50
2022-08-27T01:51:10.303Z,19.48
2022-08-27T01:52:10.315Z,19.44
2022-08-27T01:53:10.313Z,19.41
2022-08-27T01:54:10.675Z,19.46
2022-08-27T01:55:10.665Z,19.50
2022-08-27T01:56:10.327Z,19.47
2022-08-27T01:57:10.244Z,19.47
2022-08-27T01:58:10.551Z,19.46
2022-08-27T01:59:11.243Z,19.43
2022-08-27T02:00:10.261Z,19.41
2022-08-27T02:01:10.237Z,19.39
2022-08-27T02:02:10.225Z,19.37
2022-08-27T02:03:10.448Z,19.36
2022-08-27T02:04:10.204Z,19.33
2022-08-27T02:05:10.635Z,19.32
2022-08-27T02:06:10.144Z,19.33
2022-08-27T02:07:10.120Z,19.31
2022-08-27T02:08:12.153Z,19.29
2022-08-27T02:09:10.143Z,19.28
2022-08-27T02:10:10.107Z,19.26
2022-08-27T02:11:10.105Z,19.19
2022-08-27T02:12:10.091Z,19.18
2022-08-27T02:13:10.065Z,19.19
2022-08-27T02:14:13.452Z,19.19
2022-08-27T02:15:10.096Z,19.21
2022-08-27T02:16:10.110Z,19.19
2022-08-27T02:17:10.010Z,19.19
2022-08-27T02:18:10.167Z,19.18
2022-08-27T02:19:09.987Z,19.14
2022-08-27T02:20:09.988Z,19.10
2022-08-27T02:21:09.966Z,19.08
2022-08-27T02:22:10.008Z,19.07
2022-08-27T02:23:09.959Z,19.07
2022-08-27T02:24:09.977Z,19.10
2022-08-27T02:25:10.421Z,19.11
2022-08-27T02:26:09.935Z,19.10
2022-08-27T02:27:09.975Z,19.08
2022-08-27T02:28:10.042Z,19.07
2022-08-27T02:29:09.892Z,19.06
2022-08-27T02:30:09.898Z,19.04
2022-08-27T02:31:10.060Z,19.06
2022-08-27T02:32:20.624Z,19.06
2022-08-27T02:33:10.839Z,19.07
2022-08-27T02:34:09.926Z,19.02
2022-08-27T02:35:09.814Z,18.98
2022-08-27T02:36:09.828Z,18.94
2022-08-27T02:37:09.804Z,18.95
2022-08-27T02:38:09.940Z,18.92
2022-08-27T02:39:09.775Z,18.91
2022-08-27T02:40:09.844Z,18.90
2022-08-27T02:41:09.736Z,18.91
2022-08-27T02:42:10.077Z,18.88
2022-08-27T02:43:09.716Z,18.90
2022-08-27T02:44:11.130Z,18.91
2022-08-27T02:45:09.688Z,18.90
2022-08-27T02:46:09.745Z,18.91
2022-08-27T02:47:09.696Z,18.92
2022-08-27T02:48:10.159Z,18.91
2022-08-27T02:49:09.677Z,18.91
2022-08-27T02:50:09.637Z,18.90
2022-08-27T02:51:09.637Z,18.90
2022-08-27T02:52:09.627Z,18.88
2022-08-27T02:53:09.635Z,18.90
2022-08-27T02:54:09.851Z,18.88
2022-08-27T02:55:09.658Z,18.91
2022-08-27T02:56:09.965Z,18.91
2022-08-27T02:57:09.967Z,18.88
2022-08-27T02:58:09.816Z,18.84
2022-08-27T02:59:09.977Z,18.81
2022-08-27T03:00:09.561Z,18.81
2022-08-27T03:01:11.377Z,18.80
2022-08-27T03:02:10.575Z,18.78
2022-08-27T03:03:10.007Z,18.75
2022-08-27T03:04:10.019Z,18.75
2022-08-27T03:05:09.819Z,18.73
2022-08-27T03:06:09.738Z,18.73
2022-08-27T03:07:14.232Z,18.75
2022-08-27T03:08:10.574Z,18.75
2022-08-27T03:09:09.538Z,18.75
2022-08-27T03:10:09.427Z,18.69
2022-08-27T03:11:09.388Z,18.67
2022-08-27T03:12:09.399Z,18.67
2022-08-27T03:13:09.376Z,18.67
2022-08-27T03:14:09.704Z,18.63
2022-08-27T03:15:09.784Z,18.58
2022-08-27T03:16:09.708Z,18.60
2022-08-27T03:17:09.708Z,18.60
2022-08-27T03:18:09.468Z,18.58
2022-08-27T03:19:09.299Z,18.58
2022-08-27T03:20:09.313Z,18.58
2022-08-27T03:21:09.298Z,18.60
2022-08-27T03:22:09.282Z,18.60
2022-08-27T03:23:09.262Z,18.60
2022-08-27T03:24:11.530Z,18.58
2022-08-27T03:25:09.241Z,18.58
2022-08-27T03:26:09.289Z,18.57
2022-08-27T03:27:09.224Z,18.57
2022-08-27T03:28:17.818Z,18.54
2022-08-27T03:29:10.179Z,18.54
2022-08-27T03:30:09.179Z,18.52
2022-08-27T03:31:09.349Z,18.52
2022-08-27T03:32:09.162Z,18.51
2022-08-27T03:33:09.139Z,18.51
2022-08-27T03:34:09.141Z,18.50
2022-08-27T03:35:09.124Z,18.50
2022-08-27T03:36:09.565Z,18.50
2022-08-27T03:37:09.220Z,18.47
2022-08-27T03:38:09.610Z,18.45
2022-08-27T03:39:09.099Z,18.47
2022-08-27T03:40:09.096Z,18.47
2022-08-27T03:41:09.566Z,18.47
2022-08-27T03:42:09.351Z,18.47
2022-08-27T03:43:09.061Z,18.48
2022-08-27T03:44:09.061Z,18.47
2022-08-27T03:45:09.071Z,18.45
2022-08-27T03:46:09.013Z,18.45
2022-08-27T03:47:09.121Z,18.44
2022-08-27T03:48:09.216Z,18.44
2022-08-27T03:49:09.121Z,18.45
2022-08-27T03:50:08.949Z,18.45
2022-08-27T03:51:09.223Z,18.48
2022-08-27T03:52:09.220Z,18.48
2022-08-27T03:53:09.351Z,18.48
2022-08-27T03:54:09.342Z,18.51
2022-08-27T03:55:09.351Z,18.50
2022-08-27T03:56:09.471Z,18.50
2022-08-27T03:57:09.462Z,18.50
2022-08-27T03:58:09.614Z,18.48
2022-08-27T03:59:09.282Z,18.47
2022-08-27T04:00:09.583Z,18.45
2022-08-27T04:01:08.900Z,18.44
2022-08-27T04:02:08.920Z,18.44
2022-08-27T04:03:08.976Z,18.44
2022-08-27T04:04:08.992Z,18.45
2022-08-27T04:05:08.802Z,18.42
2022-08-27T04:06:09.012Z,18.37
2022-08-27T04:07:08.824Z,18.39
2022-08-27T04:08:08.834Z,18.39
2022-08-27T04:09:08.741Z,18.39
2022-08-27T04:10:08.719Z,18.37
2022-08-27T04:11:08.764Z,18.37
2022-08-27T04:12:08.734Z,18.37
2022-08-27T04:13:08.710Z,18.37
2022-08-27T04:14:13.878Z,18.36
2022-08-27T04:15:09.799Z,18.36
2022-08-27T04:16:08.828Z,18.35
2022-08-27T04:17:08.692Z,18.33
2022-08-27T04:18:08.682Z,18.33
2022-08-27T04:19:08.674Z,18.33
2022-08-27T04:20:33.841Z,18.35
2022-08-27T04:21:09.622Z,18.33
2022-08-27T04:22:08.649Z,18.35
2022-08-27T04:23:08.824Z,18.36
2022-08-27T04:24:08.555Z,18.36
2022-08-27T04:25:10.561Z,18.36
2022-08-27T04:26:08.647Z,18.36
2022-08-27T04:27:08.655Z,18.33
2022-08-27T04:28:08.771Z,18.33
2022-08-27T04:29:08.809Z,18.30
2022-08-27T04:30:08.501Z,18.32
2022-08-27T04:31:15.049Z,18.32
2022-08-27T04:32:09.455Z,18.33
2022-08-27T04:33:08.895Z,18.32
2022-08-27T04:34:08.914Z,18.33
2022-08-27T04:35:08.439Z,18.32
2022-08-27T04:36:08.425Z,18.32
2022-08-27T04:37:08.433Z,18.32
2022-08-27T04:38:08.534Z,18.30
2022-08-27T04:39:08.533Z,18.29
2022-08-27T04:40:08.601Z,18.29
2022-08-27T04:41:08.645Z,18.29
2022-08-27T04:42:08.644Z,18.29
2022-08-27T04:43:08.758Z,18.27
2022-08-27T04:44:08.362Z,18.29
2022-08-27T04:45:08.774Z,18.29
2022-08-27T04:46:08.606Z,18.27
2022-08-27T04:47:08.345Z,18.27
2022-08-27T04:48:08.951Z,18.27
2022-08-27T04:49:10.447Z,18.27
2022-08-27T04:50:08.330Z,18.26
2022-08-27T04:51:09.048Z,18.26
2022-08-27T04:52:08.234Z,18.26
2022-08-27T04:53:08.507Z,18.26
2022-08-27T04:54:08.208Z,18.26
2022-08-27T04:55:08.225Z,18.26
2022-08-27T04:56:08.234Z,18.25
2022-08-27T04:57:09.195Z,18.25
2022-08-27T04:58:08.235Z,18.26
2022-08-27T04:59:08.182Z,18.26
2022-08-27T05:00:08.173Z,18.27
2022-08-27T05:01:08.194Z,18.27
2022-08-27T05:02:08.128Z,18.25
2022-08-27T05:03:08.123Z,18.26
2022-08-27T05:04:08.107Z,18.26
2022-08-27T05:05:08.232Z,18.26
2022-08-27T05:06:08.096Z,18.27
2022-08-27T05:07:08.074Z,18.27
2022-08-27T05:08:08.124Z,18.26
2022-08-27T05:09:08.148Z,18.25
2022-08-27T05:10:08.025Z,18.25
2022-08-27T05:11:08.040Z,18.25
2022-08-27T05:12:08.049Z,18.23
2022-08-27T05:13:08.011Z,18.23
2022-08-27T05:14:07.975Z,18.23
2022-08-27T05:15:07.983Z,18.23
2022-08-27T05:16:08.051Z,18.25
2022-08-27T05:17:08.109Z,18.23
2022-08-27T05:18:08.132Z,18.26
2022-08-27T05:19:08.088Z,18.27
2022-08-27T05:20:07.914Z,18.29
2022-08-27T05:21:07.934Z,18.29
2022-08-27T05:22:07.886Z,18.29
2022-08-27T05:23:08.016Z,18.30
2022-08-27T05:24:07.872Z,18.32
2022-08-27T05:25:07.882Z,18.30
2022-08-27T05:26:07.839Z,18.32
2022-08-27T05:27:07.850Z,18.32
2022-08-27T05:28:07.854Z,18.33
2022-08-27T05:29:07.826Z,18.32
2022-08-27T05:30:07.796Z,18.30
2022-08-27T05:31:07.833Z,18.30
2022-08-27T05:32:07.766Z,18.30
2022-08-27T05:33:07.877Z,18.29
2022-08-27T05:34:10.340Z,18.29
2022-08-27T05:35:10.351Z,18.29
2022-08-27T05:36:07.719Z,18.29
2022-08-27T05:37:07.731Z,18.30
2022-08-27T05:38:08.012Z,18.29
2022-08-27T05:39:08.018Z,18.29
2022-08-27T05:40:08.076Z,18.26
2022-08-27T05:41:08.038Z,18.25
2022-08-27T05:42:07.669Z,18.27
2022-08-27T05:43:07.667Z,18.26
2022-08-27T05:44:24.121Z,18.25
2022-08-27T05:45:08.678Z,18.26
2022-08-27T05:46:07.653Z,18.26
2022-08-27T05:47:07.687Z,18.27
2022-08-27T05:48:07.658Z,18.27
2022-08-27T05:49:07.619Z,18.27
2022-08-27T05:50:07.678Z,18.29
2022-08-27T05:51:07.594Z,18.27
2022-08-27T05:52:07.549Z,18.29
2022-08-27T05:53:07.548Z,18.29
2022-08-27T05:54:08.874Z,18.29
2022-08-27T05:55:07.760Z,18.29
2022-08-27T05:56:07.539Z,18.29
2022-08-27T05:57:07.518Z,18.29
2022-08-27T05:58:07.516Z,18.29
2022-08-27T05:59:07.549Z,18.29
2022-08-27T06:00:07.878Z,18.30
2022-08-27T06:01:10.433Z,18.33
2022-08-27T06:02:07.484Z,18.32
2022-08-27T06:03:07.481Z,18.33
2022-08-27T06:04:07.484Z,18.35
2022-08-27T06:05:07.463Z,18.33
2022-08-27T06:06:07.419Z,18.33
2022-08-27T06:07:07.400Z,18.35
2022-08-27T06:08:07.577Z,18.35
2022-08-27T06:09:07.618Z,18.29
2022-08-27T06:10:07.341Z,18.29
2022-08-27T06:11:07.351Z,18.29
2022-08-27T06:12:07.329Z,18.30
2022-08-27T06:13:07.320Z,18.30
2022-08-27T06:14:07.307Z,18.32
2022-08-27T06:15:07.311Z,18.33
2022-08-27T06:16:07.419Z,18.36
2022-08-27T06:17:07.291Z,18.36
2022-08-27T06:18:07.347Z,18.35
2022-08-27T06:19:07.281Z,18.33
2022-08-27T06:20:07.352Z,18.32
2022-08-27T06:21:07.292Z,18.33
2022-08-27T06:22:10.496Z,18.32
2022-08-27T06:23:07.238Z,18.30
2022-08-27T06:24:07.270Z,18.29
2022-08-27T06:25:07.240Z,18.29
2022-08-27T06:26:07.169Z,18.27
2022-08-27T06:27:07.180Z,18.27
2022-08-27T06:28:07.560Z,18.26
2022-08-27T06:29:07.146Z,18.26
2022-08-27T06:30:07.142Z,18.25
2022-08-27T06:31:07.166Z,18.25
2022-08-27T06:32:07.156Z,18.25
2022-08-27T06:33:07.093Z,18.25
2022-08-27T06:34:07.898Z,18.23
2022-08-27T06:35:07.294Z,18.25
2022-08-27T06:36:07.049Z,18.25
2022-08-27T06:37:07.046Z,18.25
2022-08-27T06:38:07.110Z,18.23
2022-08-27T06:39:07.314Z,18.25
2022-08-27T06:40:07.093Z,18.25
2022-08-27T06:41:07.042Z,18.26
2022-08-27T06:42:07.972Z,18.23
2022-08-27T06:43:06.971Z,18.23
2022-08-27T06:44:06.979Z,18.21
2022-08-27T06:45:07.029Z,18.21
2022-08-27T06:46:06.964Z,18.21
2022-08-27T06:47:06.985Z,18.20
2022-08-27T06:48:06.930Z,18.23
2022-08-27T06:49:06.923Z,18.27
2022-08-27T06:50:06.904Z,18.32
2022-08-27T06:51:06.959Z,18.33
2022-08-27T06:52:06.939Z,18.35
2022-08-27T06:53:06.903Z,18.36
2022-08-27T06:54:06.840Z,18.37
2022-08-27T06:55:07.030Z,18.36
2022-08-27T06:56:07.102Z,18.36
2022-08-27T06:57:07.031Z,18.39
2022-08-27T06:58:06.964Z,18.39
2022-08-27T06:59:11.595Z,18.41
2022-08-27T07:00:07.772Z,18.41
2022-08-27T07:01:06.983Z,18.37
2022-08-27T07:02:06.997Z,18.37
2022-08-27T07:03:06.741Z,18.37
2022-08-27T07:04:06.723Z,18.37
2022-08-27T07:05:06.716Z,18.37
2022-08-27T07:06:06.717Z,18.37
2022-08-27T07:07:07.099Z,18.37
2022-08-27T07:08:07.130Z,18.39
2022-08-27T07:09:06.707Z,18.41
2022-08-27T07:10:06.690Z,18.41
2022-08-27T07:11:06.712Z,18.42
2022-08-27T07:12:07.054Z,18.42
2022-08-27T07:13:06.633Z,18.44
2022-08-27T07:14:06.614Z,18.47
2022-08-27T07:15:06.647Z,18.48
2022-08-27T07:16:06.665Z,18.48
2022-08-27T07:17:07.422Z,18.50
2022-08-27T07:18:06.614Z,18.51
2022-08-27T07:19:06.561Z,18.51
2022-08-27T07:20:06.586Z,18.52
2022-08-27T07:21:06.676Z,18.52
2022-08-27T07:22:06.585Z,18.54
2022-08-27T07:23:10.526Z,18.52
2022-08-27T07:24:06.835Z,18.54
2022-08-27T07:25:06.495Z,18.54
2022-08-27T07:26:06.464Z,18.55
2022-08-27T07:27:06.484Z,18.54
2022-08-27T07:28:06.478Z,18.55
2022-08-27T07:29:06.472Z,18.58
2022-08-27T07:30:06.430Z,18.62
2022-08-27T07:31:06.557Z,18.65
2022-08-27T07:32:06.394Z,18.69
2022-08-27T07:33:06.716Z,18.70
2022-08-27T07:34:06.394Z,18.76
2022-08-27T07:35:06.395Z,18.76
2022-08-27T07:36:06.400Z,18.81
2022-08-27T07:37:06.365Z,18.85
2022-08-27T07:38:06.400Z,18.91
2022-08-27T07:39:06.374Z,18.95
2022-08-27T07:40:06.351Z,19.02
2022-08-27T07:41:06.327Z,19.07
2022-08-27T07:42:06.464Z,19.11
2022-08-27T07:43:06.332Z,19.16
2022-08-27T07:44:06.388Z,19.21
2022-08-27T07:45:06.287Z,19.25
2022-08-27T07:46:06.301Z,19.28
2022-08-27T07:47:06.243Z,19.39
2022-08-27T07:48:06.396Z,19.43
2022-08-27T07:49:06.231Z,19.50
2022-08-27T07:50:06.202Z,19.54
2022-08-27T07:51:06.368Z,19.58
2022-08-27T07:52:06.184Z,19.61
2022-08-27T07:53:06.165Z,19.62
2022-08-27T07:54:06.497Z,19.63
2022-08-27T07:55:06.605Z,19.65
2022-08-27T07:56:06.505Z,19.66
2022-08-27T07:57:06.180Z,19.76
2022-08-27T07:58:06.629Z,19.81
2022-08-27T07:59:07.086Z,19.86
2022-08-27T08:00:06.109Z,19.88
2022-08-27T08:01:06.177Z,19.92
2022-08-27T08:02:06.191Z,19.98
2022-08-27T08:03:06.240Z,20.06
2022-08-27T08:04:06.068Z,20.13
2022-08-27T08:05:06.165Z,20.17
2022-08-27T08:06:06.186Z,20.21
2022-08-27T08:07:06.333Z,20.23
2022-08-27T08:08:06.373Z,20.24
2022-08-27T08:09:06.193Z,20.28
2022-08-27T08:10:06.327Z,20.32
2022-08-27T08:11:06.616Z,20.36
2022-08-27T08:12:06.162Z,20.41
2022-08-27T08:13:06.185Z,20.42
2022-08-27T08:14:06.165Z,20.48
2022-08-27T08:15:06.206Z,20.51
2022-08-27T08:16:06.416Z,20.54
2022-08-27T08:17:08.654Z,20.57
2022-08-27T08:18:06.098Z,20.57
2022-08-27T08:19:06.047Z,20.57
2022-08-27T08:20:21.800Z,20.51
2022-08-27T08:21:07.050Z,20.54
2022-08-27T08:22:06.222Z,20.55
2022-08-27T08:23:06.115Z,20.58
2022-08-27T08:24:06.271Z,20.61
2022-08-27T08:25:05.939Z,20.64
2022-08-27T08:26:05.806Z,20.69
2022-08-27T08:27:07.611Z,20.73
2022-08-27T08:28:05.776Z,20.76
2022-08-27T08:29:05.795Z,20.80
2022-08-27T08:30:05.759Z,20.82
2022-08-27T08:31:05.811Z,20.84
2022-08-27T08:32:05.765Z,20.88
2022-08-27T08:33:05.712Z,20.89
2022-08-27T08:34:05.708Z,20.91
2022-08-27T08:35:05.857Z,20.94
2022-08-27T08:36:05.991Z,20.97
2022-08-27T08:37:05.688Z,21.01
2022-08-27T08:38:06.411Z,21.03
2022-08-27T08:39:06.089Z,21.04
2022-08-27T08:40:05.999Z,21.07
2022-08-27T08:41:05.611Z,21.10
2022-08-27T08:42:05.628Z,21.10
2022-08-27T08:43:05.611Z,21.10
2022-08-27T08:44:05.920Z,21.12
2022-08-27T08:45:05.624Z,21.13
2022-08-27T08:46:05.665Z,21.07
2022-08-27T08:47:05.565Z,21.06
2022-08-27T08:48:05.550Z,21.01
2022-08-27T08:49:05.547Z,21.03
2022-08-27T08:50:05.589Z,21.03
2022-08-27T08:51:05.609Z,21.03
2022-08-27T08:52:05.572Z,20.99
2022-08-27T08:53:05.505Z,20.99
2022-08-27T08:54:05.480Z,20.99
2022-08-27T08:55:05.476Z,20.97
2022-08-27T08:56:05.459Z,20.98
2022-08-27T08:57:05.509Z,20.99
2022-08-27T08:58:05.472Z,21.03
2022-08-27T08:59:05.412Z,21.03
2022-08-27T09:00:05.418Z,21.03
2022-08-27T09:01:05.421Z,21.03
2022-08-27T09:02:08.186Z,21.04
2022-08-27T09:03:05.370Z,21.09
2022-08-27T09:04:05.673Z,21.12
2022-08-27T09:05:05.351Z,21.13
2022-08-27T09:06:05.398Z,21.14
2022-08-27T09:07:05.312Z,21.13
2022-08-27T09:08:29.218Z,21.14
2022-08-27T09:09:06.300Z,21.12
2022-08-27T09:10:05.917Z,21.12
2022-08-27T09:11:05.270Z,21.13
2022-08-27T09:12:05.514Z,21.16
2022-08-27T09:13:05.514Z,21.16
2022-08-27T09:14:05.250Z,21.19
2022-08-27T09:15:05.244Z,21.21
2022-08-27T09:16:05.354Z,21.19
2022-08-27T09:17:07.143Z,21.19
2022-08-27T09:18:06.202Z,21.21
2022-08-27T09:19:06.176Z,21.14
2022-08-27T09:20:05.463Z,21.12
2022-08-27T09:21:08.860Z,21.12
2022-08-27T09:22:05.184Z,21.10
2022-08-27T09:23:05.594Z,21.10
2022-08-27T09:24:05.589Z,21.13
2022-08-27T09:25:05.195Z,21.17
2022-08-27T09:26:05.112Z,21.22
2022-08-27T09:27:05.234Z,21.28
2022-08-27T09:28:05.099Z,21.32
2022-08-27T09:29:05.451Z,21.35
2022-08-27T09:30:05.078Z,21.40
2022-08-27T09:31:05.113Z,21.42
2022-08-27T09:32:05.054Z,21.44
2022-08-27T09:33:05.033Z,21.44
2022-08-27T09:34:05.021Z,21.44
2022-08-27T09:35:05.143Z,21.44
2022-08-27T09:36:05.008Z,21.49
2022-08-27T09:37:04.978Z,21.49
2022-08-27T09:38:05.176Z,21.49
2022-08-27T09:39:04.943Z,21.53
2022-08-27T09:40:05.103Z,21.54
2022-08-27T09:41:06.323Z,21.54
2022-08-27T09:42:04.923Z,21.54
2022-08-27T09:43:04.905Z,21.53
2022-08-27T09:44:04.914Z,21.54
2022-08-27T09:45:04.911Z,21.59
2022-08-27T09:46:05.085Z,21.64
2022-08-27T09:47:04.856Z,21.67
2022-08-27T09:48:04.906Z,21.72
2022-08-27T09:49:04.842Z,21.77
2022-08-27T09:50:06.939Z,21.82
2022-08-27T09:51:05.155Z,21.88
2022-08-27T09:52:04.815Z,21.90
2022-08-27T09:53:04.784Z,21.91
2022-08-27T09:54:04.795Z,21.91
2022-08-27T09:55:04.763Z,21.92
2022-08-27T09:56:04.775Z,21.94
2022-08-27T09:57:05.085Z,21.94
2022-08-27T09:58:04.769Z,21.99
2022-08-27T09:59:04.751Z,22.00
2022-08-27T10:00:04.726Z,22.00
2022-08-27T10:01:04.782Z,22.03
2022-08-27T10:02:07.729Z,22.03
2022-08-27T10:03:05.685Z,22.03
2022-08-27T10:04:04.970Z,22.06
2022-08-27T10:05:04.655Z,22.07
2022-08-27T10:06:04.656Z,22.07
2022-08-27T10:07:04.644Z,22.10
2022-08-27T10:08:05.086Z,22.12
2022-08-27T10:09:07.289Z,22.10
2022-08-27T10:10:04.641Z,22.07
2022-08-27T10:11:04.632Z,22.07
2022-08-27T10:12:04.706Z,22.06
2022-08-27T10:13:10.254Z,22.09
2022-08-27T10:14:05.596Z,22.14
2022-08-27T10:15:04.556Z,22.21
2022-08-27T10:16:04.603Z,22.25
2022-08-27T10:17:04.582Z,22.28
2022-08-27T10:18:04.565Z,22.31
2022-08-27T10:19:04.747Z,22.27
2022-08-27T10:20:04.513Z,22.22
2022-08-27T10:21:05.927Z,22.27
2022-08-27T10:22:04.497Z,22.27
2022-08-27T10:23:04.456Z,22.31
2022-08-27T10:24:04.486Z,22.31
2022-08-27T10:25:04.798Z,22.35
2022-08-27T10:26:04.469Z,22.31
2022-08-27T10:27:04.417Z,22.35
2022-08-27T10:28:04.417Z,22.36
2022-08-27T10:29:04.386Z,22.43
2022-08-27T10:30:04.426Z,22.52
2022-08-27T10:31:04.411Z,22.61
2022-08-27T10:32:04.443Z,22.68
2022-08-27T10:33:04.358Z,22.75
2022-08-27T10:34:04.357Z,22.80
2022-08-27T10:35:04.312Z,22.83
2022-08-27T10:36:04.752Z,22.86
2022-08-27T10:37:07.387Z,22.88
2022-08-27T10:38:04.332Z,22.91
2022-08-27T10:39:04.298Z,22.86
2022-08-27T10:40:04.372Z,22.91
2022-08-27T10:41:04.788Z,22.94
2022-08-27T10:42:04.255Z,23.02
2022-08-27T10:43:04.227Z,23.10
2022-08-27T10:44:04.318Z,23.16
2022-08-27T10:45:04.328Z,23.19
2022-08-27T10:46:04.467Z,23.23
2022-08-27T10:47:04.190Z,23.28
2022-08-27T10:48:04.559Z,23.17
2022-08-27T10:49:04.329Z,23.16
2022-08-27T10:50:04.650Z,23.15
2022-08-27T10:51:04.140Z,23.15
2022-08-27T10:52:08.150Z,23.16
2022-08-27T10:53:04.130Z,23.19
2022-08-27T10:54:04.771Z,23.13
2022-08-27T10:55:06.789Z,23.10
2022-08-27T10:56:04.119Z,23.10
2022-08-27T10:57:26.510Z,23.05
2022-08-27T10:58:05.153Z,23.12
2022-08-27T10:59:04.063Z,23.17
2022-08-27T11:00:04.101Z,23.19
2022-08-27T11:01:04.104Z,23.25
2022-08-27T11:02:04.077Z,23.33
2022-08-27T11:03:04.120Z,23.40
2022-08-27T11:04:04.010Z,23.50
2022-08-27T11:05:04.130Z,23.60
2022-08-27T11:06:04.002Z,23.70
2022-08-27T11:07:05.961Z,23.75
2022-08-27T11:08:04.100Z,23.73
2022-08-27T11:09:07.665Z,23.83
2022-08-27T11:10:03.974Z,23.94
2022-08-27T11:11:26.017Z,24.08
2022-08-27T11:12:20.180Z,24.22
2022-08-27T11:13:05.021Z,24.37
2022-08-27T11:14:04.130Z,24.50
2022-08-27T11:15:04.248Z,24.60
2022-08-27T11:16:03.939Z,24.65
2022-08-27T11:17:03.863Z,24.71
2022-08-27T11:18:03.937Z,24.71
2022-08-27T11:19:03.974Z,24.81
2022-08-27T11:20:03.851Z,24.87
2022-08-27T11:21:03.838Z,24.90
2022-08-27T11:22:03.844Z,24.99
2022-08-27T11:23:03.783Z,25.09
2022-08-27T11:24:04.180Z,25.14
2022-08-27T11:25:03.886Z,25.20
2022-08-27T11:26:03.770Z,25.27
2022-08-27T11:27:03.771Z,25.32
2022-08-27T11:28:03.781Z,25.38
2022-08-27T11:29:03.726Z,25.36
2022-08-27T11:30:03.831Z,25.15
2022-08-27T11:31:03.757Z,24.99
2022-08-27T11:32:03.763Z,25.00
2022-08-27T11:33:03.686Z,25.08
2022-08-27T11:34:03.842Z,25.08
2022-08-27T11:35:03.825Z,25.10
2022-08-27T11:36:03.665Z,25.14
2022-08-27T11:37:03.644Z,25.18
2022-08-27T11:38:03.644Z,25.20
2022-08-27T11:39:03.604Z,25.24
2022-08-27T11:40:03.797Z,25.30
2022-08-27T11:41:03.740Z,25.35
2022-08-27T11:42:03.754Z,25.42
2022-08-27T11:43:03.559Z,25.46
2022-08-27T11:44:03.586Z,25.52
2022-08-27T11:45:04.106Z,25.54
2022-08-27T11:46:03.801Z,25.57
2022-08-27T11:47:03.637Z,25.65
2022-08-27T11:48:03.545Z,25.72
2022-08-27T11:49:03.525Z,25.75
2022-08-27T11:50:03.536Z,25.69
2022-08-27T11:51:03.485Z,25.69
2022-08-27T11:52:03.477Z,25.73
2022-08-27T11:53:03.477Z,25.73
2022-08-27T11:54:03.485Z,25.65
2022-08-27T11:55:03.607Z,25.62
2022-08-27T11:56:03.465Z,25.62
2022-08-27T11:57:03.423Z,25.64
2022-08-27T11:58:03.603Z,25.65
2022-08-27T11:59:03.404Z,25.61
2022-08-27T12:00:03.441Z,25.57
2022-08-27T12:01:04.932Z,25.55
2022-08-27T12:02:03.368Z,25.52
2022-08-27T12:03:03.606Z,25.54
2022-08-27T12:04:03.495Z,25.54
2022-08-27T12:05:03.655Z,25.51
2022-08-27T12:06:03.407Z,25.50
2022-08-27T12:07:03.298Z,25.50
2022-08-27T12:08:03.309Z,25.47
2022-08-27T12:09:03.279Z,25.45
2022-08-27T12:10:03.266Z,25.43
2022-08-27T12:11:03.276Z,25.42
2022-08-27T12:12:03.270Z,25.42
2022-08-27T12:13:03.239Z,25.47
2022-08-27T12:14:03.277Z,25.55
2022-08-27T12:15:03.309Z,25.62
2022-08-27T12:16:03.304Z,25.65
2022-08-27T12:17:03.256Z,25.69
2022-08-27T12:18:03.171Z,25.70
2022-08-27T12:19:04.282Z,25.72
2022-08-27T12:20:03.331Z,25.70
2022-08-27T12:21:03.159Z,25.72
2022-08-27T12:22:03.148Z,25.73
2022-08-27T12:23:03.138Z,25.79
2022-08-27T12:24:03.100Z,25.73
2022-08-27T12:25:03.374Z,25.28
2022-08-27T12:26:03.140Z,25.17
2022-08-27T12:27:03.093Z,25.14
2022-08-27T12:28:03.195Z,25.13
2022-08-27T12:29:03.073Z,25.06
2022-08-27T12:30:03.566Z,25.05
2022-08-27T12:31:03.107Z,25.03
2022-08-27T12:32:03.090Z,24.96
2022-08-27T12:33:03.031Z,24.99
2022-08-27T12:34:03.020Z,25.03
2022-08-27T12:35:03.052Z,25.13
2022-08-27T12:36:02.985Z,25.17
2022-08-27T12:37:02.982Z,25.18
2022-08-27T12:38:03.000Z,25.25
2022-08-27T12:39:02.978Z,25.39
2022-08-27T12:40:03.018Z,25.46
2022-08-27T12:41:02.974Z,25.52
2022-08-27T12:42:03.280Z,25.60
2022-08-27T12:43:02.939Z,25.67
2022-08-27T12:44:02.882Z,25.75
2022-08-27T12:45:02.889Z,25.83
2022-08-27T12:46:02.872Z,25.88
2022-08-27T12:47:03.055Z,25.99
2022-08-27T12:48:02.994Z,26.06
2022-08-27T12:49:12.796Z,26.10
2022-08-27T12:50:03.894Z,26.15
2022-08-27T12:51:02.861Z,26.20
2022-08-27T12:52:02.805Z,26.26